Time;durP1;ratioP1;P1;durP2;ratioP2;P2;SDS_P1;SDS_P2;PMS_P1;PMS_P2;Temp;Humidity;BMP_temperature;BMP_pressure;BME280_temperature;BME280_humidity;BME280_pressure;Samples;Min_cycle;Max_cycle;Signal;HPM_P1;HPM_P2
2023/10/07 00:00:32;;;;;;;7.30;4.20;;;;;;;14.83;95.03;100285.15;106427;1264;101288;-81
2023/10/07 00:03:34;;;;;;;9.10;5.40;;;;;;;14.87;94.97;100280.10;106371;1259;99108;-80
2023/10/07 00:06:25;;;;;;;9.50;4.20;;;;;;;14.89;94.63;100280.36;106010;1263;99093;-81
2023/10/07 00:09:10;;;;;;;8.90;4.30;;;;;;;14.91;94.59;100274.33;106152;1263;96619;-81
2023/10/07 00:11:59;;;;;;;5.60;4.00;;;;;;;14.92;94.47;100271.16;106369;1260;96538;-80
2023/10/07 00:14:45;;;;;;;7.20;4.30;;;;;;;14.94;94.19;100265.19;106610;1261;100071;-80
2023/10/07 00:17:31;;;;;;;6.70;4.20;;;;;;;14.97;93.83;100259.71;106317;1259;99178;-81
2023/10/07 00:20:20;;;;;;;10.30;4.40;;;;;;;14.98;93.72;100253.55;106358;1260;97770;-80
2023/10/07 00:23:09;;;;;;;8.20;4.40;;;;;;;14.99;93.32;100249.48;106555;1265;96626;-80
2023/10/07 00:25:58;;;;;;;9.10;4.80;;;;;;;15.02;93.05;100250.70;106325;1260;97114;-80
2023/10/07 00:28:54;;;;;;;9.80;4.10;;;;;;;15.05;92.99;100246.89;106258;1264;100059;-79
2023/10/07 00:31:40;;;;;;;7.10;4.00;;;;;;;15.06;92.60;100242.02;106259;1264;99095;-80
2023/10/07 00:34:27;;;;;;;6.80;4.10;;;;;;;15.08;92.31;100237.59;106350;1259;97769;-81
2023/10/07 00:37:15;;;;;;;9.10;3.90;;;;;;;15.10;92.21;100226.45;106433;1263;96735;-81
2023/10/07 00:40:14;;;;;;;9.40;4.00;;;;;;;15.12;91.86;100225.44;106392;1260;97070;-80
2023/10/07 00:43:06;;;;;;;7.70;4.40;;;;;;;15.14;91.80;100220.09;106342;1260;100019;-81
2023/10/07 00:46:06;;;;;;;10.70;4.50;;;;;;;15.15;91.92;100219.09;106159;1262;99212;-81
2023/10/07 00:48:57;;;;;;;6.70;4.10;;;;;;;15.14;92.05;100217.34;106261;1263;98285;-81
2023/10/07 00:51:46;;;;;;;11.00;4.70;;;;;;;15.09;92.12;100221.02;106278;1263;112095;-81
2023/10/07 00:54:50;;;;;;;8.40;4.30;;;;;;;15.05;92.15;100217.92;106528;1263;97136;-79
2023/10/07 00:57:37;;;;;;;8.60;3.90;;;;;;;15.01;92.66;100224.19;106526;1262;101355;-80
2023/10/07 01:01:10;;;;;;;10.70;4.10;;;;;;;14.99;92.53;100228.81;106564;1261;99217;-82
2023/10/07 01:03:47;;;;;;;8.30;3.70;;;;;;;14.96;93.04;100215.45;106426;1259;99271;-79
2023/10/07 01:06:38;;;;;;;7.70;3.70;;;;;;;14.90;93.79;100210.09;106357;1260;96704;-81
2023/10/07 01:09:24;;;;;;;7.50;4.00;;;;;;;14.82;94.23;100202.61;106443;1264;95888;-80
2023/10/07 01:12:09;;;;;;;9.00;4.40;;;;;;;14.76;94.78;100196.67;106426;1259;100723;-79
2023/10/07 01:14:55;;;;;;;7.10;4.30;;;;;;;14.71;95.11;100200.34;106434;1264;99128;-80
2023/10/07 01:17:41;;;;;;;8.30;4.10;;;;;;;14.66;95.17;100197.17;106456;1262;99623;-80
2023/10/07 01:20:35;;;;;;;9.60;4.70;;;;;;;14.63;95.39;100195.55;106391;1261;96562;-81
2023/10/07 01:23:32;;;;;;;6.90;4.00;;;;;;;14.59;95.43;100191.07;106601;1264;97097;-79
2023/10/07 01:26:28;;;;;;;9.00;4.50;;;;;;;14.56;95.49;100181.23;106406;1260;101399;-81
2023/10/07 01:29:15;;;;;;;8.90;4.40;;;;;;;14.55;95.82;100172.45;106421;1260;100298;-80
2023/10/07 01:32:03;;;;;;;10.90;4.50;;;;;;;14.55;95.75;100164.04;106534;1261;97934;-81
2023/10/07 01:34:52;;;;;;;10.70;4.00;;;;;;;14.54;95.90;100159.77;106364;1260;96544;-79
2023/10/07 01:37:51;;;;;;;13.00;4.60;;;;;;;14.54;95.55;100153.77;106433;1264;97812;-80
2023/10/07 01:43:48;;;;;;;11.00;4.30;;;;;;;14.56;95.49;100149.67;106446;1261;100385;-79
2023/10/07 01:46:34;;;;;;;8.20;4.20;;;;;;;14.57;95.61;100141.86;106540;1259;97672;-81
2023/10/07 01:49:20;;;;;;;7.40;4.30;;;;;;;14.59;95.35;100129.25;105819;1265;96610;-81
2023/10/07 01:52:05;;;;;;;9.70;4.00;;;;;;;14.60;95.28;100119.77;106479;1259;96509;-79
2023/10/07 01:54:52;;;;;;;6.90;4.60;;;;;;;14.60;94.67;100117.54;106467;1260;101043;-80
2023/10/07 01:57:44;;;;;;;9.80;4.10;;;;;;;14.62;94.54;100120.34;106336;1263;99095;-81
2023/10/07 02:01:05;;;;;;;7.90;4.20;;;;;;;14.64;94.42;100111.77;106430;1259;99019;-80
2023/10/07 02:03:45;;;;;;;7.90;4.30;;;;;;;14.66;94.26;100110.41;106400;1259;96607;-80
2023/10/07 02:06:31;;;;;;;10.40;3.80;;;;;;;14.66;94.05;100116.96;106315;1260;97157;-80
2023/10/07 02:09:29;;;;;;;6.90;3.90;;;;;;;14.69;93.62;100117.03;106299;1261;100249;-80
2023/10/07 02:12:18;;;;;;;8.90;4.10;;;;;;;14.70;93.27;100110.71;106308;1263;100512;-80
2023/10/07 02:15:15;;;;;;;9.40;4.20;;;;;;;14.73;93.25;100118.27;106545;1260;99050;-81
2023/10/07 02:18:01;;;;;;;8.00;3.90;;;;;;;14.74;92.97;100113.35;106428;1260;96610;-80
2023/10/07 02:23:55;;;;;;;7.80;4.10;;;;;;;14.77;92.06;100109.66;106416;1260;100057;-80
2023/10/07 02:26:43;;;;;;;11.20;4.20;;;;;;;14.79;92.25;100104.59;106499;1260;99206;-81
2023/10/07 02:29:28;;;;;;;11.30;4.30;;;;;;;14.79;92.22;100105.20;106344;1260;98174;-81
2023/10/07 02:32:14;;;;;;;8.80;3.60;;;;;;;14.80;91.74;100098.27;106346;1264;96418;-81
2023/10/07 02:35:01;;;;;;;8.50;3.70;;;;;;;14.80;91.53;100099.84;106467;1260;96531;-82
2023/10/07 02:37:50;;;;;;;10.00;4.20;;;;;;;14.81;91.26;100090.46;106336;1259;100782;-80
2023/10/07 02:40:38;;;;;;;10.60;4.00;;;;;;;14.82;91.05;100090.29;106316;1259;99160;-80
2023/10/07 02:43:27;;;;;;;8.30;3.80;;;;;;;14.83;91.06;100092.14;106419;1260;98431;-80
2023/10/07 02:46:27;;;;;;;8.10;3.80;;;;;;;14.83;91.17;100084.38;106337;1261;97306;-80
2023/10/07 02:49:14;;;;;;;9.10;4.30;;;;;;;14.83;90.90;100066.54;106512;1259;97108;-80
2023/10/07 02:52:00;;;;;;;7.20;3.50;;;;;;;14.84;90.66;100060.09;105952;1260;101332;-79
2023/10/07 02:55:11;;;;;;;10.00;4.30;;;;;;;14.85;90.62;100058.84;106011;1259;99219;-80
2023/10/07 02:57:57;;;;;;;6.90;3.60;;;;;;;14.85;90.45;100060.11;106041;1264;97752;-80
2023/10/07 03:00:49;;;;;;;7.90;3.90;;;;;;;14.86;90.39;100062.63;106029;1260;97641;-80
2023/10/07 03:03:38;;;;;;;11.90;4.50;;;;;;;14.88;90.10;100059.02;106014;1259;97030;-78
2023/10/07 03:06:28;;;;;;;8.60;3.40;;;;;;;14.89;90.05;100055.26;106101;1259;101368;-80
2023/10/07 03:09:18;;;;;;;9.20;3.60;;;;;;;14.90;90.08;100051.72;105944;1264;99289;-80
2023/10/07 03:12:04;;;;;;;5.90;3.40;;;;;;;14.90;89.80;100051.14;105854;1260;98286;-80
2023/10/07 03:14:51;;;;;;;6.50;3.60;;;;;;;14.90;89.82;100049.73;105857;1261;96714;-81
2023/10/07 03:17:39;;;;;;;10.20;4.10;;;;;;;14.91;89.85;100039.88;105998;1264;96418;-80
2023/10/07 03:20:30;;;;;;;8.50;4.00;;;;;;;14.92;89.90;100031.56;106080;1263;101337;-80
2023/10/07 03:23:25;;;;;;;6.70;3.40;;;;;;;14.94;89.70;100028.23;105989;1267;99311;-80
2023/10/07 03:26:12;;;;;;;8.90;4.30;;;;;;;14.95;89.66;100019.58;106258;1263;97927;-80
2023/10/07 03:29:04;;;;;;;5.60;3.00;;;;;;;14.96;89.57;100017.08;106442;1259;97515;-80
2023/10/07 03:31:50;;;;;;;8.70;4.00;;;;;;;14.98;89.65;100020.08;106322;1259;96607;-80
2023/10/07 03:34:36;;;;;;;9.60;4.30;;;;;;;14.99;89.49;100023.25;106320;1260;100264;-81
2023/10/07 03:37:25;;;;;;;7.80;3.80;;;;;;;15.02;89.55;100021.17;106550;1264;100118;-80
2023/10/07 03:40:28;;;;;;;7.00;3.70;;;;;;;15.06;89.57;100021.96;106500;1259;99022;-80
2023/10/07 03:43:14;;;;;;;6.40;3.30;;;;;;;15.08;89.25;100019.02;106473;1262;96621;-81
2023/10/07 03:46:00;;;;;;;10.80;3.60;;;;;;;15.10;89.34;100020.31;106314;1260;96542;-81
2023/10/07 03:48:55;;;;;;;7.20;3.70;;;;;;;15.10;90.00;100020.46;106444;1262;99992;-81
2023/10/07 03:51:48;;;;;;;7.70;3.70;;;;;;;15.06;90.47;100019.22;106119;1262;99150;-80
2023/10/07 03:54:35;;;;;;;5.40;3.40;;;;;;;15.00;91.49;100016.02;106004;1261;99069;-80
2023/10/07 03:57:20;;;;;;;4.30;3.00;;;;;;;14.93;91.88;100010.89;105909;1264;96640;-80
2023/10/07 04:00:10;;;;;;;5.80;3.40;;;;;;;14.88;92.04;100006.23;106093;1260;96613;-80
2023/10/07 04:03:07;;;;;;;9.90;3.50;;;;;;;14.85;92.27;100002.84;106566;1259;101814;-82
2023/10/07 04:05:54;;;;;;;7.60;3.40;;;;;;;14.82;92.53;100000.83;106677;1259;99196;-81
2023/10/07 04:08:40;;;;;;;6.50;3.10;;;;;;;14.82;92.99;100002.34;106574;1262;99207;-81
2023/10/07 04:11:26;;;;;;;6.80;3.40;;;;;;;14.82;93.21;99999.10;106519;1260;97121;-81
2023/10/07 04:17:31;;;;;;;9.00;3.60;;;;;;;14.82;93.59;99998.17;106381;1259;100216;-80
2023/10/07 04:20:19;;;;;;;7.90;3.50;;;;;;;14.83;93.66;99994.52;106532;1260;100527;-82
2023/10/07 04:23:04;;;;;;;10.70;3.80;;;;;;;14.83;93.75;99991.84;106521;1260;97718;-81
2023/10/07 04:25:52;;;;;;;7.90;4.00;;;;;;;14.83;93.96;99987.21;106432;1260;96401;-80
2023/10/07 04:28:41;;;;;;;10.60;4.10;;;;;;;14.83;94.39;99991.04;106380;1263;97069;-80
2023/10/07 04:31:34;;;;;;;8.50;3.50;;;;;;;14.81;94.87;99989.48;106493;1259;100590;-81
2023/10/07 04:34:24;;;;;;;6.30;3.40;;;;;;;14.78;95.21;99984.43;106478;1259;100685;-81
2023/10/07 04:37:13;;;;;;;6.80;3.30;;;;;;;14.76;95.49;99984.91;105975;1259;97690;-80
2023/10/07 04:45:53;;;;;;;8.70;4.50;;;;;;;14.71;96.71;99981.38;106526;1259;100028;-80
2023/10/07 04:48:42;;;;;;;11.30;5.00;;;;;;;14.69;97.07;99975.89;106453;1261;100551;-80
2023/10/07 04:54:20;;;;;;;8.80;4.40;;;;;;;14.65;97.77;99970.88;106049;1259;96562;-80
2023/10/07 04:57:09;;;;;;;8.20;3.80;;;;;;;14.64;98.05;99969.77;105967;1259;96502;-79
2023/10/07 04:59:56;;;;;;;9.90;3.80;;;;;;;14.64;98.07;99967.66;106005;1260;100932;-79
2023/10/07 05:02:43;;;;;;;7.00;3.80;;;;;;;14.65;98.24;99964.12;105939;1264;100733;-81
2023/10/07 05:05:33;;;;;;;7.00;3.70;;;;;;;14.65;98.27;99959.39;106390;1259;97584;-80
2023/10/07 05:08:19;;;;;;;13.30;4.50;;;;;;;14.66;98.27;99952.73;106488;1264;96708;-81
2023/10/07 05:11:05;;;;;;;6.00;3.60;;;;;;;14.69;98.60;99956.47;106420;1259;97509;-80
2023/10/07 05:13:51;;;;;;;10.50;4.10;;;;;;;14.72;98.76;99956.94;106426;1260;99988;-80
2023/10/07 05:16:37;;;;;;;6.60;3.40;;;;;;;14.74;98.86;99945.22;106541;1260;100048;-81
2023/10/07 05:19:23;;;;;;;6.50;3.60;;;;;;;14.75;99.20;99947.23;106427;1259;99163;-81
2023/10/07 05:22:14;;;;;;;8.20;3.30;;;;;;;14.76;99.04;99944.23;106391;1259;96596;-83
2023/10/07 05:25:01;;;;;;;8.30;3.80;;;;;;;14.77;99.29;99943.80;106515;1261;95944;-80
2023/10/07 05:27:50;;;;;;;6.30;3.90;;;;;;;14.79;99.41;99950.45;106489;1260;100067;-78
2023/10/07 05:30:37;;;;;;;8.80;3.70;;;;;;;14.82;99.41;99946.42;106450;1259;100291;-81
2023/10/07 05:33:27;;;;;;;5.50;3.70;;;;;;;14.87;99.35;99955.23;106371;1259;98505;-80
2023/10/07 05:36:17;;;;;;;11.30;4.10;;;;;;;14.92;99.27;99970.95;106628;1259;97050;-80
2023/10/07 05:39:03;;;;;;;5.50;3.50;;;;;;;14.96;99.26;99967.54;106500;1264;96565;-80
2023/10/07 05:41:49;;;;;;;7.90;3.60;;;;;;;15.00;99.23;99957.35;106555;1260;101298;-79
2023/10/07 05:44:35;;;;;;;11.60;4.90;;;;;;;15.04;99.36;99959.08;106598;1265;99129;-81
2023/10/07 05:47:21;;;;;;;7.60;3.90;;;;;;;15.07;99.25;99970.69;106454;1259;99646;-81
2023/10/07 05:50:08;;;;;;;9.60;4.00;;;;;;;15.11;99.22;99980.14;106531;1262;96590;-80
2023/10/07 05:52:54;;;;;;;6.90;3.30;;;;;;;15.16;98.99;99977.28;106530;1259;96710;-81
2023/10/07 05:55:40;;;;;;;7.60;4.40;;;;;;;15.19;98.87;99966.47;106557;1260;100111;-80
2023/10/07 05:58:27;;;;;;;7.10;4.40;;;;;;;15.23;98.86;99963.88;106486;1261;99457;-81
2023/10/07 06:01:14;;;;;;;11.20;4.20;;;;;;;15.27;98.81;99960.20;106534;1259;97777;-81
2023/10/07 06:04:00;;;;;;;10.80;4.30;;;;;;;15.30;98.75;99971.45;106488;1262;97830;-80
2023/10/07 06:06:46;;;;;;;6.80;4.10;;;;;;;15.33;98.69;99969.58;106402;1261;96493;-81
2023/10/07 06:09:32;;;;;;;9.00;4.00;;;;;;;15.35;98.65;99951.91;106548;1263;101249;-80
2023/10/07 06:12:18;;;;;;;10.80;4.00;;;;;;;15.37;98.66;99961.09;106349;1259;99150;-81
2023/10/07 06:15:10;;;;;;;8.90;4.30;;;;;;;15.40;98.58;99973.14;106560;1259;97762;-82
2023/10/07 06:17:56;;;;;;;6.70;3.90;;;;;;;15.44;98.41;99967.53;106503;1263;96394;-80
2023/10/07 06:20:46;;;;;;;9.30;4.30;;;;;;;15.47;98.48;99968.11;106176;1261;96510;-79
2023/10/07 06:23:36;;;;;;;10.60;3.80;;;;;;;15.49;98.31;99970.16;106143;1261;101436;-80
2023/10/07 06:26:22;;;;;;;6.70;4.20;;;;;;;15.51;98.27;99970.41;106356;1261;101058;-81
2023/10/07 06:29:18;;;;;;;7.20;3.60;;;;;;;15.54;98.13;99967.84;106454;1261;97786;-81
2023/10/07 06:32:22;;;;;;;6.10;3.70;;;;;;;15.57;98.12;99962.02;106293;1263;98580;-81
2023/10/07 06:35:13;;;;;;;9.00;3.60;;;;;;;15.59;98.10;99970.45;106220;1259;96544;-82
2023/10/07 06:37:58;;;;;;;9.80;4.00;;;;;;;15.62;98.21;99970.13;106430;1260;101304;-82
2023/10/07 06:40:44;;;;;;;8.30;3.70;;;;;;;15.65;98.19;99970.14;106322;1264;100570;-82
2023/10/07 06:43:29;;;;;;;6.90;3.70;;;;;;;15.67;98.10;99985.05;106347;1259;97729;-82
2023/10/07 06:46:14;;;;;;;5.80;3.70;;;;;;;15.70;98.06;99979.59;106357;1264;96810;-82
2023/10/07 06:49:03;;;;;;;8.20;3.90;;;;;;;15.73;98.21;99978.81;106409;1259;97133;-82
2023/10/07 06:51:56;;;;;;;8.10;4.30;;;;;;;15.79;98.17;99978.36;106376;1259;100788;-82
2023/10/07 06:54:42;;;;;;;10.20;4.00;;;;;;;15.84;98.57;99978.64;106395;1259;99062;-81
2023/10/07 06:57:29;;;;;;;5.30;4.20;;;;;;;15.89;98.50;99979.61;106358;1260;97823;-83
2023/10/07 07:00:27;;;;;;;6.80;3.70;;;;;;;15.92;98.37;99975.74;106458;1261;96638;-82
2023/10/07 07:03:20;;;;;;;10.60;4.40;;;;;;;15.93;98.59;99978.58;106527;1262;98352;-82
2023/10/07 07:06:16;;;;;;;5.00;3.70;;;;;;;15.94;98.48;99973.30;106500;1259;100941;-83
2023/10/07 07:09:41;;;;;;;5.50;3.80;;;;;;;15.93;98.62;99970.20;106359;1263;99094;-82
2023/10/07 07:12:09;;;;;;;8.90;3.90;;;;;;;15.92;98.58;99972.45;106309;1262;107070;-82
2023/10/07 07:15:08;;;;;;;9.60;3.80;;;;;;;15.91;98.63;99974.01;106337;1264;96556;-81
2023/10/07 07:18:28;;;;;;;6.50;4.10;;;;;;;15.92;99.00;99966.68;106338;1259;96607;-82
2023/10/07 07:21:31;;;;;;;5.80;3.60;;;;;;;15.95;99.05;99964.52;106411;1259;100041;-82
2023/10/07 07:24:23;;;;;;;7.40;4.00;;;;;;;15.98;99.23;99971.13;106298;1260;100883;-81
2023/10/07 07:27:08;;;;;;;11.80;4.60;;;;;;;16.05;99.44;99973.00;106343;1264;97784;-82
2023/10/07 07:29:54;;;;;;;7.60;3.90;;;;;;;16.13;99.43;99980.52;106417;1260;96611;-82
2023/10/07 07:32:39;;;;;;;10.90;4.20;;;;;;;16.19;99.43;99980.38;106281;1263;96691;-82
2023/10/07 07:35:39;;;;;;;6.90;4.00;;;;;;;16.19;99.10;99988.55;106317;1264;99987;-82
2023/10/07 07:38:30;;;;;;;8.20;4.70;;;;;;;16.17;98.98;99992.50;106318;1259;100459;-82
2023/10/07 07:41:34;;;;;;;11.60;4.00;;;;;;;16.17;99.04;99986.23;106171;1259;99181;-82
2023/10/07 07:44:32;;;;;;;6.50;3.80;;;;;;;16.17;98.96;99984.39;106441;1263;96512;-83
2023/10/07 07:47:17;;;;;;;6.70;4.30;;;;;;;16.18;99.13;99992.69;106277;1259;96613;-82
2023/10/07 07:50:06;;;;;;;7.00;4.20;;;;;;;16.22;99.31;99990.33;106305;1264;101293;-80
2023/10/07 07:52:53;;;;;;;11.30;3.70;;;;;;;16.27;99.21;99988.10;106417;1259;99089;-80
2023/10/07 07:55:44;;;;;;;7.00;4.00;;;;;;;16.33;99.46;99988.45;106334;1259;97750;-81
2023/10/07 07:58:30;;;;;;;8.60;4.30;;;;;;;16.38;99.46;99985.23;106371;1259;96625;-81
2023/10/07 08:01:20;;;;;;;8.50;4.40;;;;;;;16.45;99.29;99977.36;106119;1259;96321;-81
2023/10/07 08:04:10;;;;;;;8.20;4.10;;;;;;;16.48;99.34;99972.83;106213;1262;100040;-81
2023/10/07 08:07:03;;;;;;;8.20;4.80;;;;;;;16.51;99.01;99977.66;106159;1259;100256;-80
2023/10/07 08:09:55;;;;;;;9.10;3.90;;;;;;;16.54;99.16;99978.97;106124;1259;98972;-81
2023/10/07 08:12:40;;;;;;;8.50;3.90;;;;;;;16.54;99.01;99980.43;106599;1263;96342;-81
2023/10/07 08:15:38;;;;;;;7.10;4.00;;;;;;;16.51;98.79;99988.64;106156;1259;96723;-80
2023/10/07 08:18:28;;;;;;;5.90;3.70;;;;;;;16.48;98.77;99986.77;106033;1262;100009;-81
2023/10/07 08:21:14;;;;;;;6.60;4.00;;;;;;;16.48;98.83;99991.09;106216;1259;99173;-81
2023/10/07 08:24:01;;;;;;;8.90;3.80;;;;;;;16.48;98.85;99992.23;106275;1259;97770;-80
2023/10/07 08:26:59;;;;;;;8.90;4.00;;;;;;;16.53;99.21;99987.70;106142;1261;97073;-81
2023/10/07 08:29:45;;;;;;;6.30;3.40;;;;;;;16.59;98.99;99996.54;106438;1265;97139;-82
2023/10/07 08:32:35;;;;;;;7.80;3.90;;;;;;;16.60;98.75;99999.21;106256;1259;100693;-81
2023/10/07 08:35:25;;;;;;;8.50;4.30;;;;;;;16.60;98.61;99995.27;106243;1259;99086;-80
2023/10/07 08:38:37;;;;;;;7.70;4.70;;;;;;;16.61;98.53;99999.08;106486;1264;99129;-82
2023/10/07 08:41:26;;;;;;;11.00;6.50;;;;;;;16.62;98.62;99995.27;106294;1259;96724;-82
2023/10/07 08:44:15;;;;;;;7.50;4.90;;;;;;;16.65;98.56;99995.63;106277;1259;96706;-82
2023/10/07 08:47:04;;;;;;;5.90;3.60;;;;;;;16.70;98.67;99989.84;106470;1264;100085;-82
2023/10/07 08:49:52;;;;;;;7.50;3.80;;;;;;;16.76;98.79;99989.15;106324;1259;100736;-82
2023/10/07 08:52:42;;;;;;;6.40;3.60;;;;;;;16.82;98.81;99988.88;106277;1260;97800;-82
2023/10/07 08:55:31;;;;;;;7.80;3.50;;;;;;;16.89;98.61;99991.17;106270;1259;96691;-82
2023/10/07 08:58:17;;;;;;;4.60;3.10;;;;;;;16.95;98.29;99995.62;106390;1263;96504;-82
2023/10/07 09:01:07;;;;;;;6.80;3.30;;;;;;;17.00;97.90;100003.00;106401;1259;100763;-81
2023/10/07 09:03:56;;;;;;;6.60;3.10;;;;;;;17.04;97.68;100004.96;106366;1262;100370;-81
2023/10/07 09:06:50;;;;;;;4.40;3.00;;;;;;;17.07;97.51;100011.38;106592;1262;97759;-81
2023/10/07 09:09:38;;;;;;;4.70;3.30;;;;;;;17.11;97.29;100012.54;106282;1263;96547;-80
2023/10/07 09:12:38;;;;;;;9.80;3.30;;;;;;;17.14;97.05;100011.56;106682;1259;97380;-82
2023/10/07 09:15:28;;;;;;;4.70;2.90;;;;;;;17.17;97.02;100012.30;106540;1262;100012;-82
2023/10/07 09:18:17;;;;;;;6.50;3.00;;;;;;;17.19;96.33;100014.60;106591;1260;99159;-82
2023/10/07 09:21:09;;;;;;;5.30;3.00;;;;;;;17.18;96.03;100023.36;106500;1259;98306;-82
2023/10/07 09:24:00;;;;;;;5.70;2.90;;;;;;;17.17;95.70;100022.16;106229;1259;96714;-81
2023/10/07 09:26:56;;;;;;;6.70;2.90;;;;;;;17.17;95.67;100015.06;106301;1259;97159;-81
2023/10/07 09:29:51;;;;;;;8.50;2.60;;;;;;;17.17;95.39;100011.92;106423;1261;99998;-81
2023/10/07 09:32:37;;;;;;;8.40;4.20;;;;;;;17.18;95.37;100017.25;106356;1259;99107;-80
2023/10/07 09:35:25;;;;;;;6.80;3.80;;;;;;;17.19;95.14;100022.14;106484;1259;97718;-80
2023/10/07 09:44:23;;;;;;;5.90;2.50;;;;;;;17.22;94.43;100018.67;106340;1265;100004;-82
2023/10/07 09:47:20;;;;;;;4.40;2.50;;;;;;;17.25;94.08;100026.14;106532;1264;99675;-81
2023/10/07 09:50:19;;;;;;;7.60;2.70;;;;;;;17.27;93.81;100046.59;106362;1259;97731;-82
2023/10/07 09:53:31;;;;;;;4.00;2.30;;;;;;;17.28;93.22;100050.19;106447;1262;96812;-81
2023/10/07 09:56:39;;;;;;;7.30;2.50;;;;;;;17.29;92.90;100050.30;106498;1262;96647;-82
2023/10/07 09:59:51;;;;;;;3.70;2.10;;;;;;;17.29;92.69;100057.03;106469;1259;100634;-81
2023/10/07 10:03:03;;;;;;;5.50;1.70;;;;;;;17.28;91.96;100050.73;106058;1259;99116;-83
2023/10/07 10:06:16;;;;;;;6.80;1.40;;;;;;;17.25;91.87;100050.67;106436;1260;99482;-81
2023/10/07 10:09:14;;;;;;;6.40;2.70;;;;;;;17.22;92.27;100058.75;106249;1259;97500;-82
2023/10/07 10:12:18;;;;;;;5.20;2.00;;;;;;;17.18;92.79;100066.99;106166;1262;96807;-81
2023/10/07 10:18:35;;;;;;;5.10;1.80;;;;;;;17.08;92.77;100062.80;106307;1259;99184;-82
2023/10/07 10:21:13;;;;;;;3.60;2.00;;;;;;;17.05;92.80;100056.73;105979;1259;98629;-80
2023/10/07 10:24:02;;;;;;;3.40;1.30;;;;;;;17.01;92.80;100054.98;106267;1262;96724;-83
2023/10/07 10:26:50;;;;;;;2.70;1.50;;;;;;;16.97;92.52;100056.90;106018;1259;96697;-82
2023/10/07 10:29:52;;;;;;;5.00;1.90;;;;;;;16.95;92.99;100053.73;106300;1259;100207;-82
2023/10/07 10:32:38;;;;;;;2.70;1.40;;;;;;;16.95;92.66;100049.14;106153;1262;99179;-83
2023/10/07 10:35:24;;;;;;;5.50;1.70;;;;;;;16.93;92.38;100050.40;106040;1259;97758;-81
2023/10/07 10:38:10;;;;;;;1.60;1.30;;;;;;;16.93;92.58;100049.66;105912;1266;96580;-81
2023/10/07 10:40:57;;;;;;;6.00;2.00;;;;;;;16.93;91.97;100048.40;106319;1259;96536;-82
2023/10/07 10:43:43;;;;;;;1.90;1.10;;;;;;;16.92;92.08;100046.27;106260;1262;100032;-82
2023/10/07 10:46:28;;;;;;;2.70;1.00;;;;;;;16.92;92.19;100044.10;106493;1259;99158;-81
2023/10/07 10:49:18;;;;;;;4.50;1.60;;;;;;;16.92;91.98;100044.00;106454;1263;97764;-82
2023/10/07 10:52:04;;;;;;;3.60;1.20;;;;;;;16.94;92.21;100045.42;106192;1262;96713;-82
2023/10/07 10:54:52;;;;;;;3.20;1.30;;;;;;;16.96;92.24;100050.33;106170;1262;96703;-82
2023/10/07 10:57:41;;;;;;;5.20;1.50;;;;;;;16.97;91.97;100045.48;106296;1259;101932;-81
2023/10/07 11:00:28;;;;;;;2.70;1.10;;;;;;;16.96;92.06;100048.39;106310;1259;100183;-83
2023/10/07 11:03:17;;;;;;;1.50;1.30;;;;;;;16.93;91.87;100048.98;106108;1259;99069;-82
2023/10/07 11:06:09;;;;;;;2.20;1.10;;;;;;;16.91;91.83;100062.09;106095;1267;96681;-83
2023/10/07 11:08:56;;;;;;;3.20;1.50;;;;;;;16.89;91.91;100062.81;106239;1259;96857;-83
2023/10/07 11:11:42;;;;;;;2.60;1.00;;;;;;;16.90;91.93;100066.61;106311;1259;100649;-81
2023/10/07 11:14:29;;;;;;;3.40;1.20;;;;;;;16.91;92.14;100063.23;106090;1263;100483;-82
2023/10/07 11:17:15;;;;;;;3.70;1.30;;;;;;;16.92;91.93;100063.33;106073;1259;97836;-81
2023/10/07 11:20:03;;;;;;;2.30;1.10;;;;;;;16.94;91.97;100057.71;106157;1259;96684;-82
2023/10/07 11:22:50;;;;;;;2.80;0.90;;;;;;;16.95;92.12;100055.90;106022;1261;97145;-80
2023/10/07 11:25:36;;;;;;;1.80;1.20;;;;;;;16.96;91.87;100058.03;106053;1262;100005;-81
2023/10/07 11:28:22;;;;;;;2.90;0.90;;;;;;;16.97;91.96;100063.63;105948;1259;99843;-81
2023/10/07 11:31:08;;;;;;;2.90;1.10;;;;;;;16.97;91.65;100064.92;106032;1265;107685;-79
2023/10/07 11:33:54;;;;;;;7.30;2.50;;;;;;;16.98;91.77;100065.90;105985;1259;97917;-83
2023/10/07 11:36:46;;;;;;;3.90;1.90;;;;;;;16.98;91.11;100068.23;106136;1259;99151;-84
2023/10/07 11:39:35;;;;;;;3.00;1.40;;;;;;;16.99;91.18;100068.96;106218;1262;102709;-80
2023/10/07 11:42:22;;;;;;;3.40;1.40;;;;;;;17.02;90.92;100063.65;106152;1259;100674;-82
2023/10/07 11:45:09;;;;;;;4.70;1.40;;;;;;;17.04;90.50;100065.06;106059;1259;98838;-81
2023/10/07 11:47:57;;;;;;;3.40;1.30;;;;;;;17.05;90.58;100062.96;106231;1264;98048;-82
2023/10/07 11:50:46;;;;;;;5.10;1.30;;;;;;;17.07;90.24;100061.38;106533;1264;97952;-82
2023/10/07 11:53:31;;;;;;;3.70;1.20;;;;;;;17.10;89.96;100066.19;106517;1260;103454;-82
2023/10/07 11:56:17;;;;;;;1.70;1.00;;;;;;;17.14;90.02;100071.20;106605;1259;99161;-82
2023/10/07 11:59:02;;;;;;;4.20;1.10;;;;;;;17.19;89.95;100070.52;106462;1259;97904;-80
2023/10/07 12:01:50;;;;;;;2.40;1.00;;;;;;;17.23;89.60;100070.71;106621;1262;96495;-80
2023/10/07 12:04:51;;;;;;;5.00;2.20;;;;;;;17.27;89.18;100064.95;106163;1261;97866;-82
2023/10/07 12:07:37;;;;;;;2.10;1.10;;;;;;;17.32;88.88;100068.55;106537;1265;102350;-82
2023/10/07 12:10:22;;;;;;;3.20;1.60;;;;;;;17.36;88.96;100077.84;106441;1260;99144;-82
2023/10/07 12:13:11;;;;;;;3.30;1.60;;;;;;;17.37;88.38;100079.64;106451;1259;97983;-82
2023/10/07 12:15:56;;;;;;;4.60;1.50;;;;;;;17.36;88.38;100078.83;106431;1259;97978;-82
2023/10/07 12:18:42;;;;;;;6.10;1.50;;;;;;;17.38;88.29;100075.45;106350;1259;98933;-82
2023/10/07 12:21:28;;;;;;;6.70;2.10;;;;;;;17.40;88.23;100080.30;106276;1259;103535;-83
2023/10/07 12:24:16;;;;;;;4.10;1.50;;;;;;;17.41;88.07;100078.73;106387;1264;99085;-83
2023/10/07 12:27:02;;;;;;;4.10;1.60;;;;;;;17.42;87.89;100082.81;106510;1262;97979;-86
2023/10/07 12:29:49;;;;;;;3.60;1.50;;;;;;;17.43;87.88;100083.55;106016;1267;98010;-87
2023/10/07 12:32:34;;;;;;;3.70;1.70;;;;;;;17.41;87.77;100086.22;106600;1265;95890;-88
2023/10/07 12:35:21;;;;;;;4.50;1.30;;;;;;;17.39;87.57;100088.52;106669;1265;101462;-85
2023/10/07 12:38:09;;;;;;;7.30;1.80;;;;;;;17.37;87.21;100093.19;106390;1263;99149;-84
2023/10/07 12:40:54;;;;;;;4.50;1.30;;;;;;;17.36;87.03;100093.37;106221;1259;98152;-84
2023/10/07 12:43:40;;;;;;;2.80;1.50;;;;;;;17.36;87.03;100094.67;106043;1260;97966;-85
2023/10/07 12:46:28;;;;;;;6.60;1.80;;;;;;;17.37;87.08;100091.02;105769;1259;98751;-83
2023/10/07 12:49:16;;;;;;;6.70;1.80;;;;;;;17.36;86.72;100092.45;105987;1262;101457;-85
2023/10/07 12:52:04;;;;;;;8.20;1.90;;;;;;;17.34;86.74;100093.60;105798;1260;216273;-83
2023/10/07 12:54:50;;;;;;;7.90;1.90;;;;;;;17.35;86.89;100093.63;106152;1264;97740;-86
2023/10/07 12:57:39;;;;;;;5.60;1.90;;;;;;;17.35;86.43;100097.05;105852;1259;97932;-85
2023/10/07 13:00:31;;;;;;;5.20;1.90;;;;;;;17.33;85.95;100098.52;106377;1259;97901;-85
2023/10/07 13:03:17;;;;;;;5.00;1.90;;;;;;;17.31;85.94;100097.11;105893;1259;102479;-85
2023/10/07 13:06:04;;;;;;;5.30;1.60;;;;;;;17.29;86.13;100095.58;105777;1264;100344;-84
2023/10/07 13:08:49;;;;;;;3.70;1.70;;;;;;;17.28;86.10;100100.88;105861;1264;98220;-85
2023/10/07 13:11:35;;;;;;;6.60;1.70;;;;;;;17.27;85.93;100105.77;105841;1261;98056;-85
2023/10/07 13:14:21;;;;;;;4.70;1.60;;;;;;;17.27;85.95;100108.73;106011;1262;98483;-84
2023/10/07 13:17:07;;;;;;;5.10;1.60;;;;;;;17.27;85.72;100106.91;105605;1265;101721;-85
2023/10/07 13:19:53;;;;;;;6.90;1.90;;;;;;;17.27;85.80;100108.95;105771;1263;100039;-85
2023/10/07 13:22:40;;;;;;;3.00;1.40;;;;;;;17.25;85.61;100105.23;105727;1259;99143;-85
2023/10/07 13:25:26;;;;;;;6.50;1.50;;;;;;;17.21;85.49;100109.77;105695;1260;98101;-84
2023/10/07 13:28:11;;;;;;;10.50;2.50;;;;;;;17.19;85.78;100116.07;105829;1262;96317;-83